Time;durP1;ratioP1;P1;durP2;ratioP2;P2;SDS_P1;SDS_P2;PMS_P1;PMS_P2;Temp;Humidity;BMP_temperature;BMP_pressure;BME280_temperature;BME280_humidity;BME280_pressure;Samples;Min_cycle;Max_cycle;Signal;HPM_P1;HPM_P2
2021/03/17 00:01:55;;;;;;;44.25;26.52;;;4.80;99.90;;;;;;5057497;28;20025;-72
2021/03/17 00:04:21;;;;;;;43.22;27.80;;;4.80;99.90;;;;;;5052825;28;20104;-70
2021/03/17 00:06:46;;;;;;;40.50;25.70;;;4.90;99.90;;;;;;5065793;28;20028;-70
2021/03/17 00:09:12;;;;;;;44.35;27.23;;;4.80;99.90;;;;;;5064292;28;20029;-68
2021/03/17 00:11:38;;;;;;;49.30;28.40;;;4.70;99.90;;;;;;5064703;28;20527;-69
2021/03/17 00:14:03;;;;;;;43.25;25.85;;;4.70;99.90;;;;;;5052706;28;20377;-70
2021/03/17 00:16:29;;;;;;;43.28;27.00;;;4.70;99.90;;;;;;5065042;28;20518;-69
2021/03/17 00:18:55;;;;;;;43.88;28.55;;;4.70;99.90;;;;;;5063528;28;20048;-71
2021/03/17 00:21:22;;;;;;;41.40;26.02;;;4.70;99.90;;;;;;5062919;28;20099;-70
2021/03/17 00:23:47;;;;;;;46.42;27.88;;;4.70;99.90;;;;;;5064516;28;20025;-70
2021/03/17 00:26:13;;;;;;;48.45;28.33;;;4.60;99.90;;;;;;5066333;28;20206;-71
2021/03/17 00:28:38;;;;;;;43.30;26.80;;;4.60;99.90;;;;;;5061201;28;20591;-71
2021/03/17 00:31:04;;;;;;;47.65;28.42;;;4.60;99.90;;;;;;5063697;28;20036;-70
2021/03/17 00:33:29;;;;;;;49.83;28.27;;;4.60;99.90;;;;;;5060558;28;20029;-70
2021/03/17 00:35:55;;;;;;;44.30;27.45;;;4.50;99.90;;;;;;5060402;28;20028;-70
2021/03/17 00:38:21;;;;;;;41.55;25.83;;;4.60;99.90;;;;;;5061451;28;20782;-72
2021/03/17 00:40:46;;;;;;;43.10;26.10;;;4.50;99.90;;;;;;5064325;28;20422;-69
2021/03/17 00:43:12;;;;;;;42.97;26.77;;;4.60;99.90;;;;;;5064762;28;20116;-68
2021/03/17 00:45:37;;;;;;;42.92;26.27;;;4.60;99.90;;;;;;5065155;28;21116;-70
2021/03/17 00:48:03;;;;;;;41.50;24.95;;;4.60;99.90;;;;;;5063777;28;20041;-70
2021/03/17 00:50:29;;;;;;;39.45;23.92;;;4.70;99.90;;;;;;5064961;28;21020;-71
2021/03/17 00:52:56;;;;;;;39.38;26.25;;;4.70;99.90;;;;;;5066791;28;20135;-71
2021/03/17 00:55:21;;;;;;;37.00;24.23;;;4.70;99.90;;;;;;5064000;28;20035;-70
2021/03/17 00:57:47;;;;;;;40.42;24.30;;;4.60;99.90;;;;;;5066565;28;20099;-71
2021/03/17 01:00:14;;;;;;;39.80;24.33;;;4.60;99.90;;;;;;5066833;28;20695;-69
2021/03/17 01:02:40;;;;;;;43.30;25.08;;;4.60;99.90;;;;;;5063528;28;20392;-69
2021/03/17 01:05:07;;;;;;;40.17;24.83;;;4.50;99.90;;;;;;5065015;28;20477;-69
2021/03/17 01:07:33;;;;;;;45.25;26.58;;;4.50;99.90;;;;;;5064975;28;20061;-70
2021/03/17 01:09:59;;;;;;;43.33;26.27;;;4.50;99.90;;;;;;5065161;28;20248;-71
2021/03/17 01:12:24;;;;;;;46.97;28.98;;;4.50;99.90;;;;;;5064010;28;20028;-69
2021/03/17 01:14:50;;;;;;;51.83;30.40;;;4.50;99.90;;;;;;5064731;28;20025;-69
2021/03/17 01:17:16;;;;;;;63.00;30.90;;;4.50;99.90;;;;;;5064706;28;20099;-69
2021/03/17 01:19:41;;;;;;;48.13;28.95;;;4.60;99.90;;;;;;5063808;28;20035;-72
2021/03/17 01:22:07;;;;;;;46.92;26.23;;;4.60;99.90;;;;;;5063627;28;20444;-71
2021/03/17 01:24:32;;;;;;;49.92;28.30;;;4.60;99.90;;;;;;5064846;28;20020;-68
2021/03/17 01:26:59;;;;;;;47.63;27.65;;;4.60;99.90;;;;;;5063339;28;20650;-71
2021/03/17 01:29:25;;;;;;;52.22;27.85;;;4.70;99.90;;;;;;5061371;28;20021;-69
2021/03/17 01:31:51;;;;;;;51.08;26.67;;;4.70;99.90;;;;;;5064818;28;20067;-69
2021/03/17 01:34:16;;;;;;;53.25;28.42;;;4.60;99.90;;;;;;5062362;28;20097;-69
2021/03/17 01:36:42;;;;;;;60.60;30.67;;;4.70;99.90;;;;;;5066615;28;20035;-70
2021/03/17 01:39:08;;;;;;;54.30;30.00;;;4.70;99.90;;;;;;5067940;28;20063;-71
2021/03/17 01:41:34;;;;;;;51.65;29.20;;;4.70;99.90;;;;;;5064879;28;20025;-69
2021/03/17 01:44:00;;;;;;;55.33;29.95;;;4.80;99.90;;;;;;5067337;28;20031;-68
2021/03/17 01:46:26;;;;;;;58.20;30.05;;;4.80;99.90;;;;;;5069021;28;20430;-72
2021/03/17 01:48:51;;;;;;;61.72;32.05;;;4.80;99.90;;;;;;5062543;28;20040;-69
2021/03/17 01:51:17;;;;;;;55.70;29.85;;;4.80;99.90;;;;;;5057238;28;20085;-69
2021/03/17 01:53:43;;;;;;;57.75;29.85;;;4.80;99.90;;;;;;5063563;28;20089;-69
2021/03/17 01:56:09;;;;;;;55.53;28.33;;;4.80;99.90;;;;;;5068062;28;20043;-69
2021/03/17 01:58:36;;;;;;;50.35;28.05;;;4.80;99.90;;;;;;5066888;28;20430;-70
2021/03/17 02:01:03;;;;;;;45.60;25.95;;;4.80;99.90;;;;;;5069580;28;20029;-69
2021/03/17 02:03:29;;;;;;;46.33;28.27;;;4.80;99.90;;;;;;5067584;28;20029;-71
2021/03/17 02:05:55;;;;;;;45.85;25.63;;;4.90;99.90;;;;;;5067717;28;20048;-70
2021/03/17 02:08:42;;;;;;;44.05;25.85;;;4.80;99.90;;;;;;5060226;28;20025;-69
2021/03/17 02:11:10;;;;;;;42.80;23.20;;;4.80;99.90;;;;;;5068735;28;20039;-69
2021/03/17 02:13:55;;;;;;;34.95;20.73;;;4.80;99.90;;;;;;5064615;28;20037;-70
2021/03/17 02:16:35;;;;;;;37.13;21.83;;;4.80;99.90;;;;;;5050659;28;20116;-69
2021/03/17 02:19:09;;;;;;;36.67;20.70;;;4.90;99.90;;;;;;5051340;28;20625;-70
2021/03/17 02:22:10;;;;;;;31.70;18.88;;;4.90;99.90;;;;;;5065706;28;20801;-71
2021/03/17 02:24:47;;;;;;;34.70;18.60;;;4.90;99.90;;;;;;5091474;28;20040;-73
2021/03/17 02:27:34;;;;;;;31.38;18.23;;;4.90;99.90;;;;;;5091825;28;20191;-72
2021/03/17 02:30:57;;;;;;;25.42;16.05;;;4.90;99.90;;;;;;5077445;28;20119;-70
2021/03/17 02:34:10;;;;;;;27.17;16.07;;;4.90;99.90;;;;;;5015467;28;20069;-71
2021/03/17 02:36:47;;;;;;;30.95;17.80;;;4.90;99.90;;;;;;4979855;28;20355;-68
2021/03/17 02:39:32;;;;;;;28.58;17.52;;;4.90;99.90;;;;;;5054027;28;20033;-68
2021/03/17 02:42:22;;;;;;;29.35;17.35;;;4.90;99.90;;;;;;5067219;28;20484;-67
2021/03/17 02:44:57;;;;;;;30.30;16.88;;;4.90;99.90;;;;;;5057881;28;20507;-70
2021/03/17 02:47:27;;;;;;;30.92;16.75;;;4.90;99.90;;;;;;5067851;28;20090;-70
2021/03/17 02:49:56;;;;;;;25.23;15.90;;;4.90;99.90;;;;;;5068665;28;20035;-71
2021/03/17 02:52:23;;;;;;;25.15;14.27;;;4.90;99.90;;;;;;5063135;28;20060;-69
2021/03/17 02:54:50;;;;;;;24.98;14.15;;;4.90;99.90;;;;;;5058006;28;20028;-71
2021/03/17 02:57:21;;;;;;;23.38;14.07;;;5.00;99.90;;;;;;5063290;28;20055;-69
2021/03/17 02:59:53;;;;;;;21.75;13.45;;;5.00;99.90;;;;;;5067285;28;20078;-70
2021/03/17 03:02:20;;;;;;;23.17;14.27;;;5.00;99.90;;;;;;5067422;28;20032;-68
2021/03/17 03:04:49;;;;;;;24.08;14.10;;;5.00;99.90;;;;;;5058887;28;20631;-72
2021/03/17 03:07:15;;;;;;;20.60;13.23;;;5.10;99.90;;;;;;5058977;28;20360;-72
2021/03/17 03:09:42;;;;;;;22.75;12.73;;;5.10;99.90;;;;;;5063394;28;20037;-69
2021/03/17 03:12:08;;;;;;;18.58;11.50;;;5.10;99.90;;;;;;5068554;28;20111;-71
2021/03/17 03:14:34;;;;;;;18.55;11.88;;;5.10;99.90;;;;;;5060303;28;20079;-72
2021/03/17 03:17:03;;;;;;;17.45;11.13;;;5.10;99.90;;;;;;5075195;28;20033;-68
2021/03/17 03:19:37;;;;;;;18.90;11.93;;;5.00;99.90;;;;;;5063855;28;20032;-69
2021/03/17 03:22:03;;;;;;;21.58;13.57;;;5.10;99.90;;;;;;5058997;28;20122;-69
2021/03/17 03:24:29;;;;;;;22.48;13.80;;;5.10;99.90;;;;;;5067749;28;20027;-69
2021/03/17 03:27:00;;;;;;;26.02;15.45;;;5.10;99.90;;;;;;5053732;28;20187;-71
2021/03/17 03:29:27;;;;;;;29.73;15.15;;;5.10;99.90;;;;;;5063679;28;20024;-69
2021/03/17 03:31:53;;;;;;;28.48;15.90;;;5.10;99.90;;;;;;5060699;28;20036;-69
2021/03/17 03:34:19;;;;;;;28.98;15.15;;;5.10;99.90;;;;;;5048994;28;20080;-69
2021/03/17 03:36:45;;;;;;;33.25;15.40;;;5.20;99.90;;;;;;5051706;28;20021;-69
2021/03/17 03:39:14;;;;;;;28.80;15.45;;;5.20;99.90;;;;;;5066775;28;20021;-70
2021/03/17 03:41:40;;;;;;;25.52;14.27;;;5.20;99.90;;;;;;5054255;28;20021;-70
2021/03/17 03:44:06;;;;;;;26.30;12.88;;;5.30;99.90;;;;;;5066687;28;20089;-70
2021/03/17 03:46:36;;;;;;;26.30;13.00;;;5.20;99.90;;;;;;5046953;28;20029;-71
2021/03/17 03:49:04;;;;;;;26.00;12.48;;;5.10;99.90;;;;;;5057690;28;20043;-71
2021/03/17 03:51:33;;;;;;;20.83;12.30;;;5.20;99.90;;;;;;5051240;28;20444;-69
2021/03/17 03:54:24;;;;;;;19.73;10.43;;;5.30;99.90;;;;;;5059124;28;20035;-70
2021/03/17 03:57:23;;;;;;;17.80;9.93;;;5.20;99.90;;;;;;5050931;28;20009;-70
2021/03/17 03:59:55;;;;;;;17.27;9.95;;;5.20;99.90;;;;;;5048233;28;20488;-69
2021/03/17 04:02:26;;;;;;;16.27;9.20;;;5.20;99.90;;;;;;5065784;28;20438;-68
2021/03/17 04:04:55;;;;;;;17.38;9.93;;;5.20;99.90;;;;;;5065936;28;20029;-69
2021/03/17 04:07:22;;;;;;;17.65;9.13;;;5.20;99.90;;;;;;5065282;28;20059;-70
2021/03/17 04:09:50;;;;;;;17.98;9.55;;;5.20;99.90;;;;;;5065483;28;20035;-70
2021/03/17 04:12:19;;;;;;;19.38;9.52;;;5.20;99.90;;;;;;5049817;28;20559;-71
2021/03/17 04:14:49;;;;;;;18.08;9.80;;;5.20;99.90;;;;;;5055586;28;20029;-70
2021/03/17 04:17:25;;;;;;;16.88;9.82;;;5.30;99.90;;;;;;5061763;28;20488;-72
2021/03/17 04:19:57;;;;;;;19.98;10.25;;;5.30;99.90;;;;;;5058437;28;20045;-70
2021/03/17 04:22:24;;;;;;;;;;;5.30;99.90;;;;;;5066826;28;20361;-68
2021/03/17 04:24:51;;;;;;;16.98;9.52;;;5.30;99.90;;;;;;5066686;28;20277;-71
2021/03/17 04:27:17;;;;;;;10.88;7.72;;;5.30;99.90;;;;;;5065785;28;20537;-71
2021/03/17 04:29:47;;;;;;;20.35;8.80;;;5.30;99.90;;;;;;5062254;28;20063;-70
2021/03/17 04:32:14;;;;;;;15.27;8.57;;;5.30;99.90;;;;;;5059116;28;20025;-69
2021/03/17 04:34:40;;;;;;;13.15;8.15;;;5.20;99.90;;;;;;5065758;28;20125;-68
2021/03/17 04:37:06;;;;;;;14.45;8.15;;;5.30;99.90;;;;;;5066691;28;20033;-70
2021/03/17 04:39:32;;;;;;;15.82;8.52;;;5.30;99.90;;;;;;5055012;28;20037;-71
2021/03/17 04:41:58;;;;;;;14.20;7.30;;;5.30;99.90;;;;;;5056881;28;20033;-68
2021/03/17 04:44:24;;;;;;;14.25;7.20;;;5.30;99.90;;;;;;5063141;28;20091;-70
2021/03/17 04:46:51;;;;;;;8.85;6.40;;;5.40;99.90;;;;;;5064491;28;20056;-69
2021/03/17 04:49:19;;;;;;;14.35;6.70;;;5.40;99.90;;;;;;5058944;28;20624;-71
2021/03/17 04:51:47;;;;;;;9.35;5.95;;;5.40;99.90;;;;;;5059638;28;20033;-68
2021/03/17 04:54:13;;;;;;;11.05;6.10;;;5.40;99.90;;;;;;5057804;28;20111;-69
2021/03/17 04:56:42;;;;;;;11.07;5.68;;;5.40;99.90;;;;;;5062151;28;20107;-71
2021/03/17 04:59:09;;;;;;;9.82;5.45;;;5.50;99.90;;;;;;5066616;28;20056;-70
2021/03/17 05:01:36;;;;;;;12.05;5.72;;;5.50;99.90;;;;;;5065321;28;20031;-70
2021/03/17 05:04:03;;;;;;;11.63;6.03;;;5.60;99.90;;;;;;5058876;28;20080;-69
2021/03/17 05:06:32;;;;;;;5.80;4.35;;;5.60;99.90;;;;;;5064417;28;20029;-72
2021/03/17 05:08:59;;;;;;;7.68;4.32;;;5.60;99.90;;;;;;5052224;28;20020;-70
2021/03/17 05:11:27;;;;;;;5.95;4.32;;;5.60;99.90;;;;;;5063757;28;20028;-69
2021/03/17 05:13:53;;;;;;;9.23;4.97;;;5.60;99.90;;;;;;5066099;28;20798;-70
2021/03/17 05:16:20;;;;;;;5.50;4.32;;;5.70;99.90;;;;;;5062385;28;20602;-69
2021/03/17 05:18:47;;;;;;;11.13;5.38;;;5.70;99.90;;;;;;5066157;28;20031;-70
2021/03/17 05:21:15;;;;;;;9.75;4.82;;;5.60;99.90;;;;;;5062208;28;20074;-70
2021/03/17 05:23:42;;;;;;;7.57;5.22;;;5.60;99.90;;;;;;5065535;28;20123;-68
2021/03/17 05:26:08;;;;;;;5.25;4.75;;;5.70;99.90;;;;;;5063880;28;20036;-69
2021/03/17 05:28:35;;;;;;;8.38;4.20;;;5.70;99.90;;;;;;5064233;28;20029;-70
2021/03/17 05:31:01;;;;;;;11.43;4.45;;;5.70;99.90;;;;;;5065545;28;20036;-71
2021/03/17 05:33:28;;;;;;;8.45;4.18;;;5.70;99.90;;;;;;5056837;28;20013;-69
2021/03/17 05:35:54;;;;;;;4.18;2.95;;;5.70;99.90;;;;;;5064285;28;20545;-69
2021/03/17 05:38:20;;;;;;;6.90;3.33;;;5.70;99.90;;;;;;5064010;28;20032;-71
2021/03/17 05:40:46;;;;;;;6.00;3.67;;;5.70;99.90;;;;;;5063006;28;20475;-70
2021/03/17 05:43:12;;;;;;;4.60;3.47;;;5.70;99.90;;;;;;5059720;28;20119;-72
2021/03/17 05:45:38;;;;;;;6.85;3.22;;;5.70;99.90;;;;;;5055360;28;20082;-69
2021/03/17 05:48:05;;;;;;;3.97;3.58;;;5.70;99.90;;;;;;5052607;28;20181;-69
2021/03/17 05:50:32;;;;;;;7.60;3.95;;;5.70;99.90;;;;;;5063533;28;20024;-71
2021/03/17 05:52:58;;;;;;;10.35;3.88;;;5.70;99.90;;;;;;5060151;28;20480;-71
2021/03/17 05:55:24;;;;;;;6.00;3.42;;;5.70;99.90;;;;;;5053167;28;20028;-69
2021/03/17 05:57:50;;;;;;;6.50;3.08;;;5.70;99.90;;;;;;5061850;28;20021;-71
2021/03/17 06:00:25;;;;;;;7.07;3.03;;;5.70;99.90;;;;;;5059261;28;20401;-69
2021/03/17 06:02:50;;;;;;;5.45;2.85;;;5.70;99.90;;;;;;5059387;28;20025;-69
2021/03/17 06:05:20;;;;;;;6.88;2.70;;;5.70;99.90;;;;;;5058036;28;20035;-70
2021/03/17 06:07:51;;;;;;;4.18;2.35;;;5.70;99.90;;;;;;5057672;28;20120;-68
2021/03/17 06:10:18;;;;;;;8.37;2.03;;;5.70;99.90;;;;;;5061172;28;20450;-70
2021/03/17 06:12:53;;;;;;;2.45;1.80;;;5.70;99.90;;;;;;5059378;28;20257;-70
2021/03/17 06:15:23;;;;;;;11.68;3.35;;;5.70;99.90;;;;;;5063081;28;20012;-70
2021/03/17 06:17:55;;;;;;;5.10;2.17;;;5.70;99.90;;;;;;5062651;28;20021;-71
2021/03/17 06:20:21;;;;;;;4.72;1.95;;;5.70;99.90;;;;;;5065276;28;20017;-70
2021/03/17 06:22:47;;;;;;;4.95;2.08;;;5.70;99.90;;;;;;5069377;28;20507;-68
2021/03/17 06:25:15;;;;;;;5.40;2.00;;;5.70;99.90;;;;;;5068144;28;20032;-71
2021/03/17 06:27:41;;;;;;;6.68;2.17;;;5.70;99.90;;;;;;5069937;28;20020;-68
2021/03/17 06:30:09;;;;;;;4.18;2.40;;;5.70;99.90;;;;;;5068681;28;20040;-69
2021/03/17 06:32:35;;;;;;;6.80;2.42;;;5.70;99.90;;;;;;5068932;28;20020;-71
2021/03/17 06:35:14;;;;;;;4.82;2.80;;;5.70;99.90;;;;;;5067790;28;20107;-69
2021/03/17 06:37:39;;;;;;;4.60;2.35;;;5.70;99.90;;;;;;5068405;28;20017;-70
2021/03/17 06:40:34;;;;;;;7.40;2.60;;;5.70;99.90;;;;;;5068308;28;20020;-69
2021/03/17 06:43:12;;;;;;;3.83;2.30;;;5.70;99.90;;;;;;5066985;28;20029;-71
2021/03/17 06:45:40;;;;;;;6.55;1.92;;;5.70;99.90;;;;;;5059521;28;20052;-70
2021/03/17 06:48:28;;;;;;;4.60;2.20;;;5.70;99.90;;;;;;5068616;28;20720;-71
2021/03/17 06:51:13;;;;;;;5.22;1.70;;;5.70;99.90;;;;;;5060996;28;20028;-70
2021/03/17 06:53:51;;;;;;;2.45;1.83;;;5.70;99.90;;;;;;5063767;28;20027;-71
2021/03/17 06:56:32;;;;;;;2.53;1.90;;;5.70;99.90;;;;;;5062568;28;20021;-70
2021/03/17 06:58:59;;;;;;;4.97;1.92;;;5.70;99.90;;;;;;5066315;28;20459;-70
2021/03/17 07:01:51;;;;;;;3.70;1.80;;;5.70;99.90;;;;;;5069999;28;20122;-69
2021/03/17 07:04:19;;;;;;;2.33;1.92;;;5.70;99.90;;;;;;5068343;28;20157;-70
2021/03/17 07:06:49;;;;;;;8.90;1.77;;;5.70;99.90;;;;;;5069313;28;20932;-69
2021/03/17 07:09:19;;;;;;;2.35;1.85;;;5.70;99.90;;;;;;5072131;28;20539;-70
2021/03/17 07:11:50;;;;;;;2.58;1.98;;;5.60;99.90;;;;;;5070915;28;20051;-71
2021/03/17 07:14:26;;;;;;;5.45;1.73;;;5.70;99.90;;;;;;5063675;28;20021;-72
2021/03/17 07:16:52;;;;;;;4.32;2.13;;;5.70;99.90;;;;;;5067906;28;20535;-69
2021/03/17 07:19:37;;;;;;;5.68;1.92;;;5.60;99.90;;;;;;5062740;28;20412;-69
2021/03/17 07:22:13;;;;;;;1.52;1.42;;;5.70;99.90;;;;;;5064803;28;20028;-71
2021/03/17 07:24:43;;;;;;;2.95;1.85;;;5.70;99.90;;;;;;5071992;28;20032;-72
2021/03/17 07:27:13;;;;;;;1.90;1.70;;;5.70;99.90;;;;;;5071885;28;20036;-72
2021/03/17 07:29:39;;;;;;;4.35;1.98;;;5.70;99.90;;;;;;5072611;28;20032;-72
2021/03/17 07:32:05;;;;;;;2.80;1.80;;;5.70;99.90;;;;;;5074574;28;20021;-71
2021/03/17 07:34:31;;;;;;;4.15;1.60;;;5.70;99.90;;;;;;5073158;28;20021;-71
2021/03/17 07:36:58;;;;;;;2.28;1.65;;;5.70;99.90;;;;;;5070467;28;20074;-73
2021/03/17 07:39:35;;;;;;;4.82;2.13;;;5.70;99.90;;;;;;5081008;28;20012;-71
2021/03/17 07:42:03;;;;;;;3.22;2.20;;;5.60;99.90;;;;;;5065122;28;20020;-71
2021/03/17 07:44:29;;;;;;;3.67;2.10;;;5.60;99.90;;;;;;5070237;28;20028;-72
2021/03/17 07:47:00;;;;;;;4.47;2.33;;;5.60;99.90;;;;;;5069794;28;20040;-71
2021/03/17 07:49:27;;;;;;;5.43;2.60;;;5.60;99.90;;;;;;5070030;28;20438;-71
2021/03/17 07:51:55;;;;;;;3.00;2.60;;;5.60;99.90;;;;;;5070117;28;20138;-73
2021/03/17 07:54:33;;;;;;;5.20;2.70;;;5.70;99.90;;;;;;5065872;28;20021;-72
2021/03/17 07:57:04;;;;;;;6.13;2.80;;;5.60;99.90;;;;;;5067452;28;20024;-72
2021/03/17 07:59:31;;;;;;;5.53;3.03;;;5.50;99.90;;;;;;5066303;28;20017;-69
2021/03/17 08:01:58;;;;;;;2.90;2.20;;;5.60;99.90;;;;;;5065833;28;20697;-71
2021/03/17 08:04:32;;;;;;;4.97;2.35;;;5.60;99.90;;;;;;5069489;28;20024;-74
2021/03/17 08:07:03;;;;;;;3.25;2.17;;;5.50;99.90;;;;;;5080385;28;20094;-72
2021/03/17 08:09:30;;;;;;;5.28;2.92;;;5.50;99.90;;;;;;5042368;28;20520;-71
2021/03/17 08:11:59;;;;;;;3.22;2.92;;;5.50;99.90;;;;;;5063883;28;20024;-73
2021/03/17 08:14:26;;;;;;;5.55;3.75;;;5.40;99.90;;;;;;5057721;28;20051;-72
2021/03/17 08:16:52;;;;;;;3.92;2.83;;;5.40;99.90;;;;;;5054263;28;20028;-72
2021/03/17 08:19:28;;;;;;;6.13;3.28;;;5.40;99.90;;;;;;5068273;28;20024;-72
2021/03/17 08:22:00;;;;;;;5.00;2.95;;;5.50;99.90;;;;;;5068542;28;20028;-70
2021/03/17 08:24:36;;;;;;;;;;;5.60;99.90;;;;;;5067175;28;20021;-70
2021/03/17 08:27:13;;;;;;;4.30;2.17;;;5.70;99.90;;;;;;5068840;28;19904;-71
2021/03/17 08:29:41;;;;;;;4.25;2.20;;;5.70;99.90;;;;;;5068215;28;20033;-72
2021/03/17 08:32:08;;;;;;;4.68;2.47;;;5.90;99.90;;;;;;5069139;28;20016;-70
2021/03/17 08:34:36;;;;;;;4.03;2.63;;;6.00;99.90;;;;;;5069072;28;20029;-71
2021/03/17 08:37:11;;;;;;;5.20;2.08;;;6.00;99.90;;;;;;5068449;28;20486;-73
2021/03/17 08:39:36;;;;;;;6.05;2.90;;;6.00;99.90;;;;;;5064989;28;20105;-70
2021/03/17 08:42:11;;;;;;;2.78;2.25;;;6.00;99.90;;;;;;5067676;28;20426;-70
2021/03/17 08:44:39;;;;;;;15.18;2.22;;;6.10;99.90;;;;;;5065674;28;20505;-72
2021/03/17 08:47:19;;;;;;;4.50;2.10;;;6.20;99.90;;;;;;5066829;28;20510;-71
2021/03/17 08:49:55;;;;;;;4.65;1.98;;;6.20;99.90;;;;;;5058706;28;20025;-71
2021/03/17 08:52:43;;;;;;;4.40;2.05;;;6.20;99.90;;;;;;5061104;28;20028;-71
2021/03/17 08:55:16;;;;;;;3.80;2.35;;;6.20;99.90;;;;;;5060161;28;20439;-70
2021/03/17 08:58:28;;;;;;;3.65;2.22;;;6.10;99.90;;;;;;5053600;28;20032;-70
2021/03/17 09:01:00;;;;;;;3.67;1.40;;;6.20;99.90;;;;;;5047715;28;20032;-71
2021/03/17 09:03:32;;;;;;;3.97;1.63;;;6.10;99.90;;;;;;5063731;28;20033;-69
2021/03/17 09:06:14;;;;;;;3.50;1.60;;;6.10;99.90;;;;;;5068412;28;20443;-70
2021/03/17 09:08:56;;;;;;;1.33;1.23;;;6.10;99.90;;;;;;5066356;28;20021;-71
2021/03/17 09:11:31;;;;;;;2.88;0.98;;;6.30;99.90;;;;;;5069962;28;20017;-71
2021/03/17 09:14:05;;;;;;;3.20;0.90;;;6.20;99.90;;;;;;5066808;28;20029;-70
2021/03/17 09:16:35;;;;;;;3.92;1.27;;;6.20;99.90;;;;;;5068109;28;20025;-72
2021/03/17 09:19:11;;;;;;;2.05;0.90;;;6.30;99.90;;;;;;5068367;28;20279;-67
2021/03/17 09:21:39;;;;;;;1.65;1.08;;;6.50;99.90;;;;;;5069440;28;20549;-70
2021/03/17 09:24:32;;;;;;;4.57;1.40;;;6.40;99.90;;;;;;5067554;28;20498;-70
2021/03/17 09:27:04;;;;;;;;;;;6.50;99.90;;;;;;5068305;28;20490;-71
2021/03/17 09:29:30;;;;;;;1.27;1.00;;;6.60;99.90;;;;;;5068315;28;19942;-70
2021/03/17 09:31:56;;;;;;;3.28;1.08;;;6.60;99.90;;;;;;5056532;28;20451;-69
2021/03/17 09:34:29;;;;;;;2.35;0.77;;;6.80;99.90;;;;;;5066506;28;20044;-69
2021/03/17 09:37:03;;;;;;;4.43;0.90;;;6.60;99.90;;;;;;5069145;28;20056;-70
2021/03/17 09:39:28;;;;;;;2.00;0.85;;;6.60;99.90;;;;;;5067041;28;20024;-71
2021/03/17 09:41:54;;;;;;;5.18;0.93;;;6.70;99.90;;;;;;5068567;28;20028;-69
2021/03/17 09:44:22;;;;;;;3.60;0.90;;;6.70;99.90;;;;;;5066822;28;20029;-70
2021/03/17 09:46:51;;;;;;;0.70;0.60;;;6.60;99.90;;;;;;5068398;28;20033;-72
2021/03/17 09:49:19;;;;;;;1.08;0.60;;;6.60;99.90;;;;;;5067034;28;20114;-71
2021/03/17 09:51:50;;;;;;;1.70;1.10;;;6.60;99.90;;;;;;5068770;28;20738;-70
2021/03/17 09:54:18;;;;;;;1.30;0.52;;;6.60;99.90;;;;;;5066152;28;20471;-69
2021/03/17 09:56:46;;;;;;;6.28;1.20;;;6.50;99.90;;;;;;5071035;28;20021;-70
2021/03/17 09:59:24;;;;;;;14.73;1.75;;;6.40;99.90;;;;;;5070609;28;20100;-69
2021/03/17 10:01:54;;;;;;;3.17;0.90;;;6.30;99.90;;;;;;5073271;28;20116;-69
2021/03/17 10:04:34;;;;;;;3.03;1.10;;;6.40;99.90;;;;;;5071614;28;20036;-70
2021/03/17 10:07:05;;;;;;;5.38;1.23;;;6.30;99.90;;;;;;5071734;28;20033;-70
2021/03/17 10:09:33;;;;;;;4.10;0.90;;;6.30;99.90;;;;;;5072510;28;20037;-70
2021/03/17 10:12:11;;;;;;;7.38;1.17;;;6.40;99.90;;;;;;5057028;28;20031;-70
2021/03/17 10:14:46;;;;;;;4.43;1.52;;;6.30;99.90;;;;;;5072222;28;20043;-72
2021/03/17 10:17:14;;;;;;;6.60;1.42;;;6.20;99.90;;;;;;5068949;28;20008;-68
2021/03/17 10:19:40;;;;;;;2.85;1.00;;;6.20;99.90;;;;;;5062656;28;20637;-69
2021/03/17 10:22:07;;;;;;;4.03;1.25;;;6.30;99.90;;;;;;5071528;28;20028;-69
2021/03/17 10:24:44;;;;;;;5.28;1.38;;;6.30;99.90;;;;;;5073858;28;20064;-70
2021/03/17 10:27:18;;;;;;;10.43;2.22;;;6.30;99.90;;;;;;5072661;28;20028;-70
2021/03/17 10:29:46;;;;;;;5.60;1.42;;;6.20;99.90;;;;;;5071271;28;20068;-72
2021/03/17 10:32:20;;;;;;;8.48;1.92;;;6.20;99.90;;;;;;5074045;28;20480;-70
2021/03/17 10:34:46;;;;;;;6.35;1.65;;;6.00;99.90;;;;;;5074200;28;20021;-71
2021/03/17 10:37:14;;;;;;;7.20;1.60;;;6.00;99.90;;;;;;5071062;28;20027;-70
2021/03/17 10:39:41;;;;;;;5.55;1.30;;;6.00;99.90;;;;;;5072063;28;20020;-71
2021/03/17 10:42:24;;;;;;;4.13;1.60;;;5.80;99.90;;;;;;5071027;28;20013;-70
2021/03/17 10:45:03;;;;;;;2.92;1.50;;;5.70;99.90;;;;;;5067836;28;20117;-70
2021/03/17 10:47:29;;;;;;;4.15;2.03;;;5.70;99.90;;;;;;5069315;28;20247;-71
2021/03/17 10:49:54;;;;;;;9.77;2.53;;;5.70;99.90;;;;;;5070512;28;20374;-69
2021/03/17 10:52:20;;;;;;;5.32;2.30;;;5.70;99.90;;;;;;5072520;28;20050;-71
2021/03/17 10:54:46;;;;;;;7.32;2.92;;;5.80;99.90;;;;;;5070756;28;20059;-70
2021/03/17 10:57:20;;;;;;;5.60;3.38;;;5.80;99.90;;;;;;5063448;28;20066;-72
2021/03/17 10:59:46;;;;;;;5.13;2.78;;;5.80;99.90;;;;;;5073583;28;20016;-72
2021/03/17 11:02:22;;;;;;;6.50;2.42;;;5.80;99.90;;;;;;5071359;28;20080;-73
2021/03/17 11:05:11;;;;;;;4.88;2.28;;;6.00;99.90;;;;;;5072311;28;20444;-71
2021/03/17 11:08:05;;;;;;;11.35;2.67;;;6.10;99.90;;;;;;5064765;28;20464;-71
2021/03/17 11:10:37;;;;;;;2.60;2.35;;;6.10;99.90;;;;;;5054157;28;20092;-74
2021/03/17 11:13:09;;;;;;;6.97;1.95;;;6.40;99.90;;;;;;5072083;28;20040;-72
2021/03/17 11:15:40;;;;;;;1.50;1.40;;;6.90;99.90;;;;;;5071038;28;20025;-71
2021/03/17 11:18:06;;;;;;;5.10;1.58;;;7.10;99.90;;;;;;5070052;28;20020;-73
2021/03/17 11:20:40;;;;;;;3.90;1.98;;;7.50;99.90;;;;;;5070582;28;20055;-71
2021/03/17 11:23:29;;;;;;;1.90;1.77;;;7.40;99.90;;;;;;5066781;28;20017;-72
2021/03/17 11:25:57;;;;;;;2.78;1.80;;;7.20;99.90;;;;;;5072875;28;20027;-72
2021/03/17 11:28:25;;;;;;;4.38;1.67;;;6.90;99.90;;;;;;5073448;28;20031;-73
2021/03/17 11:31:01;;;;;;;4.63;2.38;;;6.80;99.90;;;;;;5059839;28;20085;-69
2021/03/17 11:33:27;;;;;;;3.10;1.90;;;6.70;99.90;;;;;;5055279;28;20028;-71
2021/03/17 11:35:56;;;;;;;6.28;2.15;;;6.60;99.90;;;;;;5072777;28;20017;-72
2021/03/17 11:38:24;;;;;;;4.55;2.10;;;6.40;99.90;;;;;;5075147;28;20070;-71
2021/03/17 11:40:51;;;;;;;2.10;1.90;;;6.40;99.90;;;;;;5074286;28;20013;-71
2021/03/17 11:43:21;;;;;;;3.25;2.17;;;6.50;99.90;;;;;;5061428;28;20443;-70
2021/03/17 11:45:49;;;;;;;4.07;1.77;;;6.40;99.90;;;;;;5073506;28;20031;-69
2021/03/17 11:48:16;;;;;;;6.95;1.60;;;6.30;99.90;;;;;;5072321;28;20044;-70
2021/03/17 11:50:45;;;;;;;6.40;2.03;;;6.30;99.90;;;;;;5070945;28;20059;-71
2021/03/17 11:53:12;;;;;;;9.25;1.63;;;6.40;99.90;;;;;;5072186;28;20031;-69
2021/03/17 11:55:38;;;;;;;6.65;1.48;;;6.40;99.90;;;;;;5066206;28;20020;-71
2021/03/17 11:58:04;;;;;;;6.68;1.65;;;6.40;99.90;;;;;;5059650;28;20066;-70
2021/03/17 12:00:30;;;;;;;9.82;2.05;;;6.50;99.90;;;;;;5072477;28;20013;-72
2021/03/17 12:02:56;;;;;;;11.82;1.55;;;6.60;99.90;;;;;;5071407;28;20025;-74
2021/03/17 12:05:21;;;;;;;3.13;1.25;;;6.80;99.90;;;;;;5070714;28;20025;-70
2021/03/17 12:07:48;;;;;;;9.27;2.10;;;6.90;99.90;;;;;;5059044;28;20035;-71
2021/03/17 12:10:15;;;;;;;6.88;1.88;;;6.90;99.90;;;;;;5066030;28;20024;-72
2021/03/17 12:12:41;;;;;;;7.65;1.80;;;7.00;99.90;;;;;;5061471;28;20016;-71
2021/03/17 12:15:10;;;;;;;5.70;2.15;;;7.10;99.90;;;;;;5068749;28;20036;-74
2021/03/17 12:17:37;;;;;;;7.28;2.30;;;7.10;99.90;;;;;;5054196;28;20036;-72
2021/03/17 12:20:04;;;;;;;8.35;1.42;;;7.10;99.90;;;;;;5079626;28;20103;-73
2021/03/17 12:22:30;;;;;;;3.85;1.80;;;6.90;99.90;;;;;;5066767;28;20025;-70
2021/03/17 12:24:56;;;;;;;4.05;1.70;;;7.00;99.90;;;;;;5067232;28;20040;-72
2021/03/17 12:27:23;;;;;;;8.32;1.73;;;7.00;99.90;;;;;;5069372;28;20028;-73
2021/03/17 12:29:49;;;;;;;6.78;2.10;;;7.00;99.90;;;;;;5067932;28;20594;-72
2021/03/17 12:32:16;;;;;;;11.07;2.03;;;7.00;99.90;;;;;;5068555;28;20034;-71
2021/03/17 12:34:43;;;;;;;10.80;2.58;;;7.00;99.90;;;;;;5068328;28;20025;-71
2021/03/17 12:37:10;;;;;;;16.33;1.83;;;7.10;99.90;;;;;;5066351;28;20371;-71
2021/03/17 12:39:36;;;;;;;11.27;1.92;;;7.20;99.90;;;;;;5067530;28;20020;-72
2021/03/17 12:42:01;;;;;;;4.90;1.38;;;7.80;99.90;;;;;;5069010;28;20106;-72
2021/03/17 12:44:27;;;;;;;14.15;2.38;;;8.00;99.90;;;;;;5065570;28;20021;-71
2021/03/17 12:46:53;;;;;;;3.80;1.92;;;7.90;99.90;;;;;;5066512;28;20031;-72
2021/03/17 12:49:18;;;;;;;8.93;1.90;;;7.70;99.90;;;;;;5066846;28;20044;-72
2021/03/17 12:51:44;;;;;;;6.80;1.90;;;7.80;99.90;;;;;;5068285;28;20021;-71
2021/03/17 12:54:09;;;;;;;8.05;1.52;;;7.70;99.90;;;;;;5067801;28;20059;-72
2021/03/17 12:56:35;;;;;;;5.40;1.38;;;7.70;99.90;;;;;;5066926;28;20027;-70
2021/03/17 12:59:01;;;;;;;9.73;1.42;;;7.80;99.90;;;;;;5066457;28;20035;-71
2021/03/17 13:01:27;;;;;;;5.65;1.17;;;7.60;99.90;;;;;;5067461;28;20400;-71
2021/03/17 13:03:53;;;;;;;10.18;1.23;;;7.70;99.90;;;;;;5066983;28;20089;-71
2021/03/17 13:06:19;;;;;;;6.05;1.08;;;8.00;99.90;;;;;;5067619;28;20024;-70